sensor_id;sensor_type;location;lat;lon;timestamp;pressure;altitude;pressure_sealevel;temperature;humidity
2549;BME280;1284;53.520;10.248;2024-03-02T00:01:04;99754.75;;;12.28;83.82
2549;BME280;1284;53.520;10.248;2024-03-02T00:03:30;99753.97;;;12.21;84.35
2549;BME280;1284;53.520;10.248;2024-03-02T00:05:55;99752.03;;;12.14;84.86
2549;BME280;1284;53.520;10.248;2024-03-02T00:08:24;99759.00;;;12.05;85.38
2549;BME280;1284;53.520;10.248;2024-03-02T00:10:58;99751.66;;;12.09;85.46
2549;BME280;1284;53.520;10.248;2024-03-02T00:13:24;99753.97;;;12.14;84.78
2549;BME280;1284;53.520;10.248;2024-03-02T00:15:54;99751.28;;;12.14;85.08
2549;BME280;1284;53.520;10.248;2024-03-02T00:18:30;99750.13;;;12.15;85.48
2549;BME280;1284;53.520;10.248;2024-03-02T00:20:57;99746.28;;;12.09;85.43
2549;BME280;1284;53.520;10.248;2024-03-02T00:23:23;99742.41;;;12.13;85.05
2549;BME280;1284;53.520;10.248;2024-03-02T00:25:52;99745.50;;;12.22;84.49
2549;BME280;1284;53.520;10.248;2024-03-02T00:28:24;99738.53;;;12.18;84.83
2549;BME280;1284;53.520;10.248;2024-03-02T00:33:40;99729.72;;;12.00;85.88
2549;BME280;1284;53.520;10.248;2024-03-02T00:36:06;99723.91;;;12.01;86.21
2549;BME280;1284;53.520;10.248;2024-03-02T00:38:34;99725.47;;;12.06;86.02
2549;BME280;1284;53.520;10.248;2024-03-02T00:41:09;99732.41;;;12.07;85.90
2549;BME280;1284;53.520;10.248;2024-03-02T00:44:00;99718.88;;;12.10;86.00
2549;BME280;1284;53.520;10.248;2024-03-02T00:46:33;99727.00;;;12.10;86.22
2549;BME280;1284;53.520;10.248;2024-03-02T00:49:00;99720.06;;;12.02;86.64
2549;BME280;1284;53.520;10.248;2024-03-02T00:51:27;99725.09;;;12.04;86.68
2549;BME280;1284;53.520;10.248;2024-03-02T00:53:57;99723.94;;;11.98;86.92
2549;BME280;1284;53.520;10.248;2024-03-02T00:56:26;99725.47;;;12.06;87.52
2549;BME280;1284;53.520;10.248;2024-03-02T00:58:52;99717.75;;;12.04;86.79
2549;BME280;1284;53.520;10.248;2024-03-02T01:01:18;99720.84;;;11.85;88.28
2549;BME280;1284;53.520;10.248;2024-03-02T01:03:45;99729.31;;;11.87;88.69
2549;BME280;1284;53.520;10.248;2024-03-02T01:06:10;99732.00;;;11.91;88.67
2549;BME280;1284;53.520;10.248;2024-03-02T01:08:36;99724.69;;;11.91;88.39
2549;BME280;1284;53.520;10.248;2024-03-02T01:11:02;99721.22;;;11.91;88.09
2549;BME280;1284;53.520;10.248;2024-03-02T01:13:28;99725.47;;;11.88;87.73
2549;BME280;1284;53.520;10.248;2024-03-02T01:15:54;99724.28;;;11.75;88.68
2549;BME280;1284;53.520;10.248;2024-03-02T01:18:20;99720.84;;;11.85;89.14
2549;BME280;1284;53.520;10.248;2024-03-02T01:20:45;99723.16;;;11.97;87.50
2549;BME280;1284;53.520;10.248;2024-03-02T01:23:11;99720.84;;;11.82;88.64
2549;BME280;1284;53.520;10.248;2024-03-02T01:25:36;99718.53;;;11.76;89.10
2549;BME280;1284;53.520;10.248;2024-03-02T01:28:02;99711.97;;;11.74;89.93
2549;BME280;1284;53.520;10.248;2024-03-02T01:30:28;99708.88;;;11.79;89.57
2549;BME280;1284;53.520;10.248;2024-03-02T01:32:53;99711.59;;;11.79;89.04
2549;BME280;1284;53.520;10.248;2024-03-02T01:35:19;99716.97;;;11.79;89.41
2549;BME280;1284;53.520;10.248;2024-03-02T01:37:44;99705.81;;;11.73;89.51
2549;BME280;1284;53.520;10.248;2024-03-02T01:40:10;99708.91;;;11.68;88.92
2549;BME280;1284;53.520;10.248;2024-03-02T01:42:37;99700.41;;;11.73;89.74
2549;BME280;1284;53.520;10.248;2024-03-02T01:45:05;99700.81;;;11.75;89.59
2549;BME280;1284;53.520;10.248;2024-03-02T01:47:30;99706.97;;;11.79;88.88
2549;BME280;1284;53.520;10.248;2024-03-02T01:49:56;99709.28;;;11.74;89.71
2549;BME280;1284;53.520;10.248;2024-03-02T01:52:21;99705.03;;;11.66;89.95
2549;BME280;1284;53.520;10.248;2024-03-02T01:54:47;99700.81;;;11.68;90.22
2549;BME280;1284;53.520;10.248;2024-03-02T01:57:12;99702.31;;;11.62;90.58
2549;BME280;1284;53.520;10.248;2024-03-02T01:59:38;99710.44;;;11.73;89.96
2549;BME280;1284;53.520;10.248;2024-03-02T02:02:03;99710.44;;;11.73;89.71
2549;BME280;1284;53.520;10.248;2024-03-02T02:04:29;99706.19;;;11.72;89.59
2549;BME280;1284;53.520;10.248;2024-03-02T02:06:54;99706.97;;;11.69;89.25
2549;BME280;1284;53.520;10.248;2024-03-02T02:09:20;99714.66;;;11.81;89.16
2549;BME280;1284;53.520;10.248;2024-03-02T02:11:45;99713.53;;;11.78;89.06
2549;BME280;1284;53.520;10.248;2024-03-02T02:14:11;99705.81;;;11.77;89.11
2549;BME280;1284;53.520;10.248;2024-03-02T02:16:36;99698.88;;;11.76;89.14
2549;BME280;1284;53.520;10.248;2024-03-02T02:19:02;99706.97;;;11.76;88.90
2549;BME280;1284;53.520;10.248;2024-03-02T02:21:28;99700.03;;;11.75;89.24
2549;BME280;1284;53.520;10.248;2024-03-02T02:23:53;99696.19;;;11.79;88.64
2549;BME280;1284;53.520;10.248;2024-03-02T02:26:19;99700.03;;;11.71;88.91
2549;BME280;1284;53.520;10.248;2024-03-02T02:28:45;99695.81;;;11.67;89.46
2549;BME280;1284;53.520;10.248;2024-03-02T02:31:14;99702.34;;;11.66;89.57
2549;BME280;1284;53.520;10.248;2024-03-02T02:33:40;99688.44;;;11.64;89.78
2549;BME280;1284;53.520;10.248;2024-03-02T02:36:05;99694.63;;;11.61;88.99
2549;BME280;1284;53.520;10.248;2024-03-02T02:38:32;99691.94;;;11.71;88.90
2549;BME280;1284;53.520;10.248;2024-03-02T02:40:58;99688.84;;;11.66;89.13
2549;BME280;1284;53.520;10.248;2024-03-02T02:43:23;99691.53;;;11.59;89.50
2549;BME280;1284;53.520;10.248;2024-03-02T02:45:49;99693.06;;;11.63;89.43
2549;BME280;1284;53.520;10.248;2024-03-02T02:48:14;99685.41;;;11.69;89.01
2549;BME280;1284;53.520;10.248;2024-03-02T02:50:41;99684.59;;;11.58;89.73
2549;BME280;1284;53.520;10.248;2024-03-02T02:53:06;99688.06;;;11.58;89.67
2549;BME280;1284;53.520;10.248;2024-03-02T02:55:35;99681.50;;;11.56;89.71
2549;BME280;1284;53.520;10.248;2024-03-02T02:58:03;99679.59;;;11.53;89.85
2549;BME280;1284;53.520;10.248;2024-03-02T03:00:28;99681.50;;;11.56;89.30
2549;BME280;1284;53.520;10.248;2024-03-02T03:02:54;99679.19;;;11.54;89.64
2549;BME280;1284;53.520;10.248;2024-03-02T03:05:20;99674.97;;;11.53;89.42
2549;BME280;1284;53.520;10.248;2024-03-02T03:07:45;99671.47;;;11.42;89.57
2549;BME280;1284;53.520;10.248;2024-03-02T03:10:11;99670.34;;;11.43;89.83
2549;BME280;1284;53.520;10.248;2024-03-02T03:12:37;99665.31;;;11.52;89.56
2549;BME280;1284;53.520;10.248;2024-03-02T03:15:03;99673.03;;;11.47;89.80
2549;BME280;1284;53.520;10.248;2024-03-02T03:17:29;99674.97;;;11.43;88.94
2549;BME280;1284;53.520;10.248;2024-03-02T03:19:55;99668.00;;;11.38;90.05
2549;BME280;1284;53.520;10.248;2024-03-02T03:22:20;99676.91;;;11.49;88.68
2549;BME280;1284;53.520;10.248;2024-03-02T03:24:46;99672.25;;;11.39;89.12
2549;BME280;1284;53.520;10.248;2024-03-02T03:27:11;99659.16;;;11.45;89.25
2549;BME280;1284;53.520;10.248;2024-03-02T03:29:37;99677.66;;;11.39;89.71
2549;BME280;1284;53.520;10.248;2024-03-02T03:32:03;99669.19;;;11.37;89.32
2549;BME280;1284;53.520;10.248;2024-03-02T03:34:32;99676.88;;;11.35;90.22
2549;BME280;1284;53.520;10.248;2024-03-02T03:36:58;99668.00;;;11.31;89.32
2549;BME280;1284;53.520;10.248;2024-03-02T03:39:23;99669.56;;;11.32;89.43
2549;BME280;1284;53.520;10.248;2024-03-02T03:41:48;99672.25;;;11.43;88.95
2549;BME280;1284;53.520;10.248;2024-03-02T03:44:14;99672.66;;;11.41;88.90
2549;BME280;1284;53.520;10.248;2024-03-02T03:46:39;99674.56;;;11.41;89.32
2549;BME280;1284;53.520;10.248;2024-03-02T03:49:05;99676.13;;;11.42;89.21
2549;BME280;1284;53.520;10.248;2024-03-02T03:51:30;99671.88;;;11.34;89.21
2549;BME280;1284;53.520;10.248;2024-03-02T03:53:56;99682.66;;;11.37;89.04
2549;BME280;1284;53.520;10.248;2024-03-02T03:56:21;99669.97;;;11.38;89.05
2549;BME280;1284;53.520;10.248;2024-03-02T03:58:47;99682.28;;;11.35;88.85
2549;BME280;1284;53.520;10.248;2024-03-02T04:01:12;99674.97;;;11.39;88.69
2549;BME280;1284;53.520;10.248;2024-03-02T04:03:38;99671.88;;;11.41;88.51
2549;BME280;1284;53.520;10.248;2024-03-02T04:06:04;99672.25;;;11.39;88.51
2549;BME280;1284;53.520;10.248;2024-03-02T04:08:29;99666.09;;;11.39;88.58
2549;BME280;1284;53.520;10.248;2024-03-02T04:10:54;99669.97;;;11.38;89.03
2549;BME280;1284;53.520;10.248;2024-03-02T04:13:20;99658.78;;;11.36;87.88
2549;BME280;1284;53.520;10.248;2024-03-02T04:15:45;99663.00;;;11.30;89.10
2549;BME280;1284;53.520;10.248;2024-03-02T04:18:11;99656.47;;;11.45;87.39
2549;BME280;1284;53.520;10.248;2024-03-02T04:20:37;99652.63;;;11.32;88.25
2549;BME280;1284;53.520;10.248;2024-03-02T04:23:02;99650.69;;;11.36;87.79
2549;BME280;1284;53.520;10.248;2024-03-02T04:25:28;99650.31;;;11.41;88.27
2549;BME280;1284;53.520;10.248;2024-03-02T04:27:53;99648.00;;;11.36;88.36
2549;BME280;1284;53.520;10.248;2024-03-02T04:30:19;99649.53;;;11.30;88.45
2549;BME280;1284;53.520;10.248;2024-03-02T04:32:44;99650.28;;;11.27;89.01
2549;BME280;1284;53.520;10.248;2024-03-02T04:35:14;99650.69;;;11.36;88.17
2549;BME280;1284;53.520;10.248;2024-03-02T04:37:39;99655.69;;;11.34;88.03
2549;BME280;1284;53.520;10.248;2024-03-02T04:40:05;99652.25;;;11.44;87.98
2549;BME280;1284;53.520;10.248;2024-03-02T04:42:34;99659.53;;;11.36;87.19
2549;BME280;1284;53.520;10.248;2024-03-02T04:44:59;99661.88;;;11.45;87.18
2549;BME280;1284;53.520;10.248;2024-03-02T04:47:25;99660.69;;;11.39;87.26
2549;BME280;1284;53.520;10.248;2024-03-02T04:49:50;99652.63;;;11.35;88.04
2549;BME280;1284;53.520;10.248;2024-03-02T04:52:16;99661.47;;;11.36;87.56
2549;BME280;1284;53.520;10.248;2024-03-02T04:54:41;99655.31;;;11.35;87.50
2549;BME280;1284;53.520;10.248;2024-03-02T04:57:25;99660.72;;;11.32;87.62
2549;BME280;1284;53.520;10.248;2024-03-02T04:59:51;99660.72;;;11.32;86.45
2549;BME280;1284;53.520;10.248;2024-03-02T05:02:16;99670.72;;;11.31;87.27
2549;BME280;1284;53.520;10.248;2024-03-02T05:04:42;99672.63;;;11.52;85.69
2549;BME280;1284;53.520;10.248;2024-03-02T05:07:07;99677.25;;;11.34;85.26
2549;BME280;1284;53.520;10.248;2024-03-02T05:09:33;99681.88;;;11.26;86.11
2549;BME280;1284;53.520;10.248;2024-03-02T05:11:58;99681.50;;;11.35;86.10
2549;BME280;1284;53.520;10.248;2024-03-02T05:14:42;99681.50;;;11.28;85.31
2549;BME280;1284;53.520;10.248;2024-03-02T05:17:08;99678.00;;;11.34;85.86
2549;BME280;1284;53.520;10.248;2024-03-02T05:19:33;99680.31;;;11.29;86.24
2549;BME280;1284;53.520;10.248;2024-03-02T05:21:59;99675.72;;;11.26;86.50
2549;BME280;1284;53.520;10.248;2024-03-02T05:24:24;99684.19;;;11.24;86.45
2549;BME280;1284;53.520;10.248;2024-03-02T05:26:53;99673.00;;;11.26;86.49
2549;BME280;1284;53.520;10.248;2024-03-02T05:29:18;99673.78;;;11.26;86.20
2549;BME280;1284;53.520;10.248;2024-03-02T05:31:44;99673.00;;;11.36;85.57
2549;BME280;1284;53.520;10.248;2024-03-02T05:34:09;99665.31;;;11.28;86.22
2549;BME280;1284;53.520;10.248;2024-03-02T05:36:35;99670.69;;;11.21;86.27
2549;BME280;1284;53.520;10.248;2024-03-02T05:39:00;99660.69;;;11.18;86.55
2549;BME280;1284;53.520;10.248;2024-03-02T05:41:26;99678.00;;;11.24;86.24
2549;BME280;1284;53.520;10.248;2024-03-02T05:43:52;99673.00;;;11.19;86.97
2549;BME280;1284;53.520;10.248;2024-03-02T05:46:17;99672.25;;;11.15;87.08
2549;BME280;1284;53.520;10.248;2024-03-02T05:48:43;99672.63;;;11.17;87.33
2549;BME280;1284;53.520;10.248;2024-03-02T05:51:08;99667.59;;;11.08;87.44
2549;BME280;1284;53.520;10.248;2024-03-02T05:53:34;99675.28;;;11.06;88.07
2549;BME280;1284;53.520;10.248;2024-03-02T05:55:59;99671.81;;;11.09;87.35
2549;BME280;1284;53.520;10.248;2024-03-02T05:58:25;99679.53;;;11.18;86.88
2549;BME280;1284;53.520;10.248;2024-03-02T06:00:59;99676.84;;;11.11;87.42
2549;BME280;1284;53.520;10.248;2024-03-02T06:03:25;99676.44;;;11.09;87.37
2549;BME280;1284;53.520;10.248;2024-03-02T06:05:50;99686.44;;;11.08;87.48
2549;BME280;1284;53.520;10.248;2024-03-02T06:08:16;99686.84;;;11.10;87.33
2549;BME280;1284;53.520;10.248;2024-03-02T06:10:41;99676.81;;;11.04;87.62
2549;BME280;1284;53.520;10.248;2024-03-02T06:13:07;99674.50;;;11.06;87.85
2549;BME280;1284;53.520;10.248;2024-03-02T06:15:32;99669.13;;;11.09;87.93
2549;BME280;1284;53.520;10.248;2024-03-02T06:17:59;99675.28;;;11.10;87.54
2549;BME280;1284;53.520;10.248;2024-03-02T06:20:25;99673.38;;;11.10;87.48
2549;BME280;1284;53.520;10.248;2024-03-02T06:22:52;99677.63;;;11.15;87.16
2549;BME280;1284;53.520;10.248;2024-03-02T06:25:17;99684.53;;;11.09;87.39
2549;BME280;1284;53.520;10.248;2024-03-02T06:27:42;99690.72;;;11.13;87.56
2549;BME280;1284;53.520;10.248;2024-03-02T06:30:09;99689.53;;;11.10;87.32
2549;BME280;1284;53.520;10.248;2024-03-02T06:32:34;99684.94;;;11.11;87.00
2549;BME280;1284;53.520;10.248;2024-03-02T06:35:00;99681.09;;;11.19;86.55
2549;BME280;1284;53.520;10.248;2024-03-02T06:37:25;99687.97;;;11.09;86.88
2549;BME280;1284;53.520;10.248;2024-03-02T06:39:50;99690.75;;;11.34;84.54
2549;BME280;1284;53.520;10.248;2024-03-02T06:42:16;99698.03;;;11.23;86.02
2549;BME280;1284;53.520;10.248;2024-03-02T06:44:41;99698.38;;;11.07;86.14
2549;BME280;1284;53.520;10.248;2024-03-02T06:47:07;99703.34;;;11.02;86.83
2549;BME280;1284;53.520;10.248;2024-03-02T06:49:32;99701.50;;;11.27;85.40
2549;BME280;1284;53.520;10.248;2024-03-02T06:51:58;99695.72;;;11.14;85.63
2549;BME280;1284;53.520;10.248;2024-03-02T06:54:23;99696.88;;;11.17;86.24
2549;BME280;1284;53.520;10.248;2024-03-02T06:56:48;99691.47;;;11.13;85.81
2549;BME280;1284;53.520;10.248;2024-03-02T06:59:14;99695.31;;;11.16;86.37
2549;BME280;1284;53.520;10.248;2024-03-02T07:01:39;99694.53;;;11.12;85.82
2549;BME280;1284;53.520;10.248;2024-03-02T07:04:05;99693.78;;;11.15;86.08
2549;BME280;1284;53.520;10.248;2024-03-02T07:06:31;99697.66;;;11.28;85.58
2549;BME280;1284;53.520;10.248;2024-03-02T07:08:57;99693.03;;;11.25;85.69
2549;BME280;1284;53.520;10.248;2024-03-02T07:11:22;99698.44;;;11.28;85.31
2549;BME280;1284;53.520;10.248;2024-03-02T07:13:48;99698.06;;;11.30;85.72
2549;BME280;1284;53.520;10.248;2024-03-02T07:16:13;99694.56;;;11.29;86.00
2549;BME280;1284;53.520;10.248;2024-03-02T07:18:55;99695.34;;;11.40;85.96
2549;BME280;1284;53.520;10.248;2024-03-02T07:21:22;99698.06;;;11.30;85.99
2549;BME280;1284;53.520;10.248;2024-03-02T07:23:48;99691.88;;;11.36;86.00
2549;BME280;1284;53.520;10.248;2024-03-02T07:26:14;99695.38;;;11.44;84.57
2549;BME280;1284;53.520;10.248;2024-03-02T07:28:46;99696.53;;;11.36;85.17
2549;BME280;1284;53.520;10.248;2024-03-02T07:31:13;99700.34;;;11.35;85.59
2549;BME280;1284;53.520;10.248;2024-03-02T07:33:38;99709.25;;;11.49;85.23
2549;BME280;1284;53.520;10.248;2024-03-02T07:36:04;99719.25;;;11.49;85.18
2549;BME280;1284;53.520;10.248;2024-03-02T07:38:30;99720.78;;;11.50;85.11
2549;BME280;1284;53.520;10.248;2024-03-02T07:40:56;99720.41;;;11.55;84.89
2549;BME280;1284;53.520;10.248;2024-03-02T07:43:22;99722.34;;;11.61;82.53
2549;BME280;1284;53.520;10.248;2024-03-02T07:45:48;99736.22;;;11.60;83.49
2549;BME280;1284;53.520;10.248;2024-03-02T07:48:14;99736.59;;;11.62;83.77
2549;BME280;1284;53.520;10.248;2024-03-02T07:50:40;99738.94;;;11.77;83.20
2549;BME280;1284;53.520;10.248;2024-03-02T07:53:06;99737.81;;;11.82;83.57
2549;BME280;1284;53.520;10.248;2024-03-02T07:55:33;99745.88;;;11.93;82.41
2549;BME280;1284;53.520;10.248;2024-03-02T07:57:58;99734.34;;;11.99;82.12
2549;BME280;1284;53.520;10.248;2024-03-02T08:00:24;99746.28;;;12.05;81.04
2549;BME280;1284;53.520;10.248;2024-03-02T08:02:51;99748.59;;;12.17;80.83
2549;BME280;1284;53.520;10.248;2024-03-02T08:05:17;99749.34;;;12.28;79.69
2549;BME280;1284;53.520;10.248;2024-03-02T08:07:44;99749.38;;;12.07;80.27
2549;BME280;1284;53.520;10.248;2024-03-02T08:10:10;99744.72;;;12.15;79.72
2549;BME280;1284;53.520;10.248;2024-03-02T08:12:36;99754.72;;;12.35;80.25
2549;BME280;1284;53.520;10.248;2024-03-02T08:15:01;99755.09;;;12.37;79.17
2549;BME280;1284;53.520;10.248;2024-03-02T08:17:27;99765.50;;;12.49;79.50
2549;BME280;1284;53.520;10.248;2024-03-02T08:19:53;99762.38;;;12.65;79.12
2549;BME280;1284;53.520;10.248;2024-03-02T08:22:19;99764.31;;;12.64;77.90
2549;BME280;1284;53.520;10.248;2024-03-02T08:24:45;99778.53;;;12.86;76.53
2549;BME280;1284;53.520;10.248;2024-03-02T08:27:10;99772.34;;;12.86;76.26
2549;BME280;1284;53.520;10.248;2024-03-02T08:29:37;99779.31;;;12.80;75.46
2549;BME280;1284;53.520;10.248;2024-03-02T08:32:03;99769.66;;;12.79;76.63
2549;BME280;1284;53.520;10.248;2024-03-02T08:34:28;99774.66;;;12.84;75.20
2549;BME280;1284;53.520;10.248;2024-03-02T08:36:54;99768.50;;;12.87;74.59
2549;BME280;1284;53.520;10.248;2024-03-02T08:39:19;99779.31;;;12.83;75.11
2549;BME280;1284;53.520;10.248;2024-03-02T08:41:46;99781.25;;;12.72;75.66
2549;BME280;1284;53.520;10.248;2024-03-02T08:44:13;99789.00;;;12.66;76.14
2549;BME280;1284;53.520;10.248;2024-03-02T08:46:39;99777.81;;;12.61;76.69
2549;BME280;1284;53.520;10.248;2024-03-02T08:49:04;99781.28;;;12.65;77.29
2549;BME280;1284;53.520;10.248;2024-03-02T08:51:30;99782.03;;;12.83;76.57
2549;BME280;1284;53.520;10.248;2024-03-02T08:53:56;99783.13;;;12.96;76.46
2549;BME280;1284;53.520;10.248;2024-03-02T08:56:23;99786.16;;;13.16;75.44
2549;BME280;1284;53.520;10.248;2024-03-02T08:58:49;99779.97;;;13.19;75.25
2549;BME280;1284;53.520;10.248;2024-03-02T09:01:15;99779.97;;;13.19;75.14
2549;BME280;1284;53.520;10.248;2024-03-02T09:03:42;99796.56;;;13.21;73.98
2549;BME280;1284;53.520;10.248;2024-03-02T09:06:10;99788.03;;;13.29;74.56
2549;BME280;1284;53.520;10.248;2024-03-02T09:08:35;99784.88;;;13.45;75.32
2549;BME280;1284;53.520;10.248;2024-03-02T09:11:03;99781.31;;;13.58;73.01
2549;BME280;1284;53.520;10.248;2024-03-02T09:13:28;99785.09;;;13.72;72.88
2549;BME280;1284;53.520;10.248;2024-03-02T09:15:54;99788.50;;;13.79;72.93
2549;BME280;1284;53.520;10.248;2024-03-02T09:18:20;99782.78;;;13.70;73.15
2549;BME280;1284;53.520;10.248;2024-03-02T09:20:45;99793.25;;;13.61;72.68
2549;BME280;1284;53.520;10.248;2024-03-02T09:23:11;99793.34;;;13.50;72.84
2549;BME280;1284;53.520;10.248;2024-03-02T09:25:37;99782.91;;;13.49;73.72
2549;BME280;1284;53.520;10.248;2024-03-02T09:28:02;99791.00;;;13.52;73.53
2549;BME280;1284;53.520;10.248;2024-03-02T09:30:28;99789.03;;;13.53;74.74
2549;BME280;1284;53.520;10.248;2024-03-02T09:32:54;99783.63;;;13.60;75.10
2549;BME280;1284;53.520;10.248;2024-03-02T09:35:19;99797.44;;;13.73;73.98
2549;BME280;1284;53.520;10.248;2024-03-02T09:37:45;99793.88;;;13.90;72.53
2549;BME280;1284;53.520;10.248;2024-03-02T09:40:11;99795.66;;;14.07;72.66
2549;BME280;1284;53.520;10.248;2024-03-02T09:42:37;99801.72;;;14.21;71.39
2549;BME280;1284;53.520;10.248;2024-03-02T09:45:03;99797.53;;;14.13;71.61
2549;BME280;1284;53.520;10.248;2024-03-02T09:47:28;99806.06;;;14.12;72.16
2549;BME280;1284;53.520;10.248;2024-03-02T09:49:54;99792.13;;;14.10;73.21
2549;BME280;1284;53.520;10.248;2024-03-02T09:52:22;99785.06;;;14.26;72.76
2549;BME280;1284;53.520;10.248;2024-03-02T09:54:48;99791.81;;;14.48;71.72
2549;BME280;1284;53.520;10.248;2024-03-02T09:57:14;99788.69;;;14.54;70.00
2549;BME280;1284;53.520;10.248;2024-03-02T09:59:40;99799.94;;;14.48;71.07
2549;BME280;1284;53.520;10.248;2024-03-02T10:02:05;99800.97;;;14.62;70.58
2549;BME280;1284;53.520;10.248;2024-03-02T10:04:32;99799.78;;;14.66;70.49
2549;BME280;1284;53.520;10.248;2024-03-02T10:07:18;99802.72;;;14.82;69.69
2549;BME280;1284;53.520;10.248;2024-03-02T10:09:45;99804.88;;;14.98;68.03
2549;BME280;1284;53.520;10.248;2024-03-02T10:12:12;99802.69;;;14.86;67.36
2549;BME280;1284;53.520;10.248;2024-03-02T10:14:38;99797.22;;;14.89;68.25
2549;BME280;1284;53.520;10.248;2024-03-02T10:17:05;99795.63;;;14.92;67.42
2549;BME280;1284;53.520;10.248;2024-03-02T10:19:31;99795.31;;;14.86;67.43
2549;BME280;1284;53.520;10.248;2024-03-02T10:22:02;99794.88;;;14.91;67.35
2549;BME280;1284;53.520;10.248;2024-03-02T10:24:35;99799.34;;;15.05;67.87
2549;BME280;1284;53.520;10.248;2024-03-02T10:27:06;99798.25;;;14.99;67.48
2549;BME280;1284;53.520;10.248;2024-03-02T10:29:33;99805.47;;;15.12;66.47
2549;BME280;1284;53.520;10.248;2024-03-02T10:32:02;99801.94;;;15.15;66.75
2549;BME280;1284;53.520;10.248;2024-03-02T10:34:27;99806.88;;;15.24;66.75
2549;BME280;1284;53.520;10.248;2024-03-02T10:36:54;99805.25;;;15.30;65.78
2549;BME280;1284;53.520;10.248;2024-03-02T10:39:20;99806.25;;;15.43;65.31
2549;BME280;1284;53.520;10.248;2024-03-02T10:41:49;99811.13;;;15.55;64.21
2549;BME280;1284;53.520;10.248;2024-03-02T10:44:15;99807.84;;;15.41;65.06
2549;BME280;1284;53.520;10.248;2024-03-02T10:46:42;99794.44;;;15.26;64.36
2549;BME280;1284;53.520;10.248;2024-03-02T10:49:09;99795.97;;;15.27;65.28
2549;BME280;1284;53.520;10.248;2024-03-02T10:51:35;99799.63;;;15.48;64.90
2549;BME280;1284;53.520;10.248;2024-03-02T10:54:02;99799.94;;;15.53;64.24
2549;BME280;1284;53.520;10.248;2024-03-02T10:56:31;99807.75;;;15.74;62.67
2549;BME280;1284;53.520;10.248;2024-03-02T10:59:28;99800.81;;;15.73;63.93
2549;BME280;1284;53.520;10.248;2024-03-02T11:01:58;99799.41;;;15.88;61.06
2549;BME280;1284;53.520;10.248;2024-03-02T11:04:25;99814.34;;;15.77;61.40
2549;BME280;1284;53.520;10.248;2024-03-02T11:06:52;99814.09;;;15.64;61.84
2549;BME280;1284;53.520;10.248;2024-03-02T11:09:26;99803.34;;;15.57;63.02
2549;BME280;1284;53.520;10.248;2024-03-02T11:12:13;99809.03;;;15.66;62.54
2549;BME280;1284;53.520;10.248;2024-03-02T11:14:43;99801.66;;;15.67;62.20
2549;BME280;1284;53.520;10.248;2024-03-02T11:17:09;99815.78;;;15.85;61.83
2549;BME280;1284;53.520;10.248;2024-03-02T11:19:38;99812.88;;;15.95;60.85
2549;BME280;1284;53.520;10.248;2024-03-02T11:22:03;99808.28;;;15.92;60.28
2549;BME280;1284;53.520;10.248;2024-03-02T11:24:31;99814.31;;;16.03;59.11
2549;BME280;1284;53.520;10.248;2024-03-02T11:27:03;99815.09;;;16.04;59.33
2549;BME280;1284;53.520;10.248;2024-03-02T11:32:16;99822.34;;;16.10;59.94
2549;BME280;1284;53.520;10.248;2024-03-02T11:34:45;99822.00;;;16.08;59.62
2549;BME280;1284;53.520;10.248;2024-03-02T11:37:12;99821.53;;;16.13;58.93
2549;BME280;1284;53.520;10.248;2024-03-02T11:39:42;99820.69;;;16.16;58.35
2549;BME280;1284;53.520;10.248;2024-03-02T11:42:08;99820.88;;;16.06;59.21
2549;BME280;1284;53.520;10.248;2024-03-02T11:44:38;99822.03;;;16.05;58.90
2549;BME280;1284;53.520;10.248;2024-03-02T11:47:08;99819.50;;;15.94;59.78
2549;BME280;1284;53.520;10.248;2024-03-02T11:49:43;99822.22;;;15.94;59.13
2549;BME280;1284;53.520;10.248;2024-03-02T11:52:12;99813.66;;;15.96;58.87
2549;BME280;1284;53.520;10.248;2024-03-02T11:54:40;99812.06;;;15.98;58.58
2549;BME280;1284;53.520;10.248;2024-03-02T11:57:09;99816.50;;;15.89;58.62
2549;BME280;1284;53.520;10.248;2024-03-02T11:59:34;99811.97;;;15.79;59.10
2549;BME280;1284;53.520;10.248;2024-03-02T12:02:00;99814.09;;;15.64;59.91
2549;BME280;1284;53.520;10.248;2024-03-02T12:04:26;99822.72;;;15.59;59.60
2549;BME280;1284;53.520;10.248;2024-03-02T12:06:59;99814.31;;;15.50;59.60
2549;BME280;1284;53.520;10.248;2024-03-02T12:09:26;99816.22;;;15.53;59.70
2549;BME280;1284;53.520;10.248;2024-03-02T12:12:02;99811.19;;;15.52;60.14
2549;BME280;1284;53.520;10.248;2024-03-02T12:14:28;99818.25;;;15.46;60.52
2549;BME280;1284;53.520;10.248;2024-03-02T12:16:54;99817.75;;;15.54;60.49
2549;BME280;1284;53.520;10.248;2024-03-02T12:19:21;99806.63;;;15.45;61.08
2549;BME280;1284;53.520;10.248;2024-03-02T12:21:46;99817.84;;;15.47;60.83
2549;BME280;1284;53.520;10.248;2024-03-02T12:24:12;99814.69;;;15.52;60.78
2549;BME280;1284;53.520;10.248;2024-03-02T12:26:37;99815.78;;;15.55;60.91
2549;BME280;1284;53.520;10.248;2024-03-02T12:29:03;99809.41;;;15.68;60.17
2549;BME280;1284;53.520;10.248;2024-03-02T12:31:28;99816.06;;;15.64;60.12
2549;BME280;1284;53.520;10.248;2024-03-02T12:33:54;99806.97;;;15.77;59.64
2549;BME280;1284;53.520;10.248;2024-03-02T12:36:20;99809.75;;;15.70;60.05
2549;BME280;1284;53.520;10.248;2024-03-02T12:38:45;99810.31;;;15.58;60.25
2549;BME280;1284;53.520;10.248;2024-03-02T12:41:15;99790.97;;;15.56;60.27
2549;BME280;1284;53.520;10.248;2024-03-02T12:43:40;99804.88;;;15.58;60.45
2549;BME280;1284;53.520;10.248;2024-03-02T12:46:06;99807.56;;;15.62;59.88
2549;BME280;1284;53.520;10.248;2024-03-02T12:48:31;99811.03;;;15.62;60.28
2549;BME280;1284;53.520;10.248;2024-03-02T12:50:58;99797.78;;;15.68;61.09
2549;BME280;1284;53.520;10.248;2024-03-02T12:53:24;99806.19;;;15.77;61.68
2549;BME280;1284;53.520;10.248;2024-03-02T12:55:50;99802.50;;;15.90;59.68
2549;BME280;1284;53.520;10.248;2024-03-02T12:58:19;99801.41;;;15.84;59.32
2549;BME280;1284;53.520;10.248;2024-03-02T13:00:46;99805.09;;;15.71;60.00
2549;BME280;1284;53.520;10.248;2024-03-02T13:03:12;99790.94;;;15.60;60.46
2549;BME280;1284;53.520;10.248;2024-03-02T13:05:39;99790.56;;;15.84;59.51
2549;BME280;1284;53.520;10.248;2024-03-02T13:08:06;99799.84;;;15.87;59.34
2549;BME280;1284;53.520;10.248;2024-03-02T13:10:32;99793.41;;;15.74;59.31
2549;BME280;1284;53.520;10.248;2024-03-02T13:12:58;99795.38;;;15.73;59.30